sensor_id;sensor_type;location;lat;lon;timestamp;temperature;humidity
15127;DHT22;7664;52.008;4.748;2022-10-18T00:00:58;14.90;99.90
15127;DHT22;7664;52.008;4.748;2022-10-18T00:03:26;15.00;99.90
15127;DHT22;7664;52.008;4.748;2022-10-18T00:05:54;14.90;99.90
15127;DHT22;7664;52.008;4.748;2022-10-18T00:08:21;14.90;99.90
15127;DHT22;7664;52.008;4.748;2022-10-18T00:10:49;14.90;99.90
15127;DHT22;7664;52.008;4.748;2022-10-18T00:13:19;14.90;99.90
15127;DHT22;7664;52.008;4.748;2022-10-18T00:15:48;14.70;99.90
15127;DHT22;7664;52.008;4.748;2022-10-18T00:18:17;14.90;99.90
15127;DHT22;7664;52.008;4.748;2022-10-18T00:20:55;14.70;99.90
15127;DHT22;7664;52.008;4.748;2022-10-18T00:23:24;14.80;99.90
15127;DHT22;7664;52.008;4.748;2022-10-18T00:25:58;14.80;99.90
15127;DHT22;7664;52.008;4.748;2022-10-18T00:28:28;14.70;99.90
15127;DHT22;7664;52.008;4.748;2022-10-18T00:30:56;14.70;99.90
15127;DHT22;7664;52.008;4.748;2022-10-18T00:33:24;14.70;99.90
15127;DHT22;7664;52.008;4.748;2022-10-18T00:35:52;14.70;99.90
15127;DHT22;7664;52.008;4.748;2022-10-18T00:38:20;14.60;99.90
15127;DHT22;7664;52.008;4.748;2022-10-18T00:40:47;14.60;99.90
15127;DHT22;7664;52.008;4.748;2022-10-18T00:43:17;14.60;99.90
15127;DHT22;7664;52.008;4.748;2022-10-18T00:45:46;14.60;99.90
15127;DHT22;7664;52.008;4.748;2022-10-18T00:48:15;14.60;99.90
15127;DHT22;7664;52.008;4.748;2022-10-18T00:50:46;14.60;99.90
15127;DHT22;7664;52.008;4.748;2022-10-18T00:53:16;14.60;99.90
15127;DHT22;7664;52.008;4.748;2022-10-18T00:55:45;14.60;99.90
15127;DHT22;7664;52.008;4.748;2022-10-18T00:58:15;14.60;99.90
15127;DHT22;7664;52.008;4.748;2022-10-18T01:00:43;14.60;99.90
15127;DHT22;7664;52.008;4.748;2022-10-18T01:03:13;14.50;99.90
15127;DHT22;7664;52.008;4.748;2022-10-18T01:05:43;14.50;99.90
15127;DHT22;7664;52.008;4.748;2022-10-18T01:08:33;14.50;99.90
15127;DHT22;7664;52.008;4.748;2022-10-18T01:14:03;14.50;99.90
15127;DHT22;7664;52.008;4.748;2022-10-18T01:16:37;14.50;99.90
15127;DHT22;7664;52.008;4.748;2022-10-18T01:19:21;14.40;99.90
15127;DHT22;7664;52.008;4.748;2022-10-18T01:21:58;14.50;99.90
15127;DHT22;7664;52.008;4.748;2022-10-18T01:24:44;14.40;99.90
15127;DHT22;7664;52.008;4.748;2022-10-18T01:27:28;14.50;99.90
15127;DHT22;7664;52.008;4.748;2022-10-18T01:32:57;14.40;99.90
15127;DHT22;7664;52.008;4.748;2022-10-18T01:35:31;14.50;99.90
15127;DHT22;7664;52.008;4.748;2022-10-18T01:38:03;14.40;99.90
15127;DHT22;7664;52.008;4.748;2022-10-18T01:40:32;14.40;99.90
15127;DHT22;7664;52.008;4.748;2022-10-18T01:43:02;14.40;99.90
15127;DHT22;7664;52.008;4.748;2022-10-18T01:45:36;14.40;99.90
15127;DHT22;7664;52.008;4.748;2022-10-18T01:48:05;14.40;99.90
15127;DHT22;7664;52.008;4.748;2022-10-18T01:50:34;14.40;99.90
15127;DHT22;7664;52.008;4.748;2022-10-18T01:53:02;14.40;99.90
15127;DHT22;7664;52.008;4.748;2022-10-18T01:55:34;14.40;99.90
15127;DHT22;7664;52.008;4.748;2022-10-18T01:58:10;14.40;99.90
15127;DHT22;7664;52.008;4.748;2022-10-18T02:00:43;14.30;99.90
15127;DHT22;7664;52.008;4.748;2022-10-18T02:03:16;14.30;99.90
15127;DHT22;7664;52.008;4.748;2022-10-18T02:05:53;14.30;99.90
15127;DHT22;7664;52.008;4.748;2022-10-18T02:08:26;14.30;99.90
15127;DHT22;7664;52.008;4.748;2022-10-18T02:10:59;14.30;99.90
15127;DHT22;7664;52.008;4.748;2022-10-18T02:13:31;14.30;99.90
15127;DHT22;7664;52.008;4.748;2022-10-18T02:16:04;14.20;99.90
15127;DHT22;7664;52.008;4.748;2022-10-18T02:18:37;14.20;99.90
15127;DHT22;7664;52.008;4.748;2022-10-18T02:21:09;14.20;99.90
15127;DHT22;7664;52.008;4.748;2022-10-18T02:23:37;14.20;99.90
15127;DHT22;7664;52.008;4.748;2022-10-18T02:26:05;14.20;99.90
15127;DHT22;7664;52.008;4.748;2022-10-18T02:28:35;14.10;99.90
15127;DHT22;7664;52.008;4.748;2022-10-18T02:31:08;14.10;99.90
15127;DHT22;7664;52.008;4.748;2022-10-18T02:33:45;14.10;99.90
15127;DHT22;7664;52.008;4.748;2022-10-18T02:36:18;14.00;99.90
15127;DHT22;7664;52.008;4.748;2022-10-18T02:38:50;14.00;99.90
15127;DHT22;7664;52.008;4.748;2022-10-18T02:41:22;13.90;99.90
15127;DHT22;7664;52.008;4.748;2022-10-18T02:43:50;13.90;99.90
15127;DHT22;7664;52.008;4.748;2022-10-18T02:46:18;13.90;99.90
15127;DHT22;7664;52.008;4.748;2022-10-18T02:48:48;13.90;99.90
15127;DHT22;7664;52.008;4.748;2022-10-18T02:51:16;13.90;99.90
15127;DHT22;7664;52.008;4.748;2022-10-18T02:53:43;13.80;99.90
15127;DHT22;7664;52.008;4.748;2022-10-18T02:56:11;13.80;99.90
15127;DHT22;7664;52.008;4.748;2022-10-18T02:58:39;13.80;99.90
15127;DHT22;7664;52.008;4.748;2022-10-18T03:01:07;13.80;99.90
15127;DHT22;7664;52.008;4.748;2022-10-18T03:03:35;13.70;99.90
15127;DHT22;7664;52.008;4.748;2022-10-18T03:06:05;13.70;99.90
15127;DHT22;7664;52.008;4.748;2022-10-18T03:08:32;13.70;99.90
15127;DHT22;7664;52.008;4.748;2022-10-18T03:11:00;13.70;99.90
15127;DHT22;7664;52.008;4.748;2022-10-18T03:13:28;13.70;99.90
15127;DHT22;7664;52.008;4.748;2022-10-18T03:15:56;13.70;99.90
15127;DHT22;7664;52.008;4.748;2022-10-18T03:18:24;13.70;99.90
15127;DHT22;7664;52.008;4.748;2022-10-18T03:20:52;13.70;99.90
15127;DHT22;7664;52.008;4.748;2022-10-18T03:23:21;13.70;99.90
15127;DHT22;7664;52.008;4.748;2022-10-18T03:25:49;13.70;99.90
15127;DHT22;7664;52.008;4.748;2022-10-18T03:28:17;13.60;99.90
15127;DHT22;7664;52.008;4.748;2022-10-18T03:30:45;13.60;99.90
15127;DHT22;7664;52.008;4.748;2022-10-18T03:33:12;13.70;99.90
15127;DHT22;7664;52.008;4.748;2022-10-18T03:35:40;13.60;99.90
15127;DHT22;7664;52.008;4.748;2022-10-18T03:38:08;13.60;99.90
15127;DHT22;7664;52.008;4.748;2022-10-18T03:40:40;13.60;99.90
15127;DHT22;7664;52.008;4.748;2022-10-18T03:43:08;13.50;99.90
15127;DHT22;7664;52.008;4.748;2022-10-18T03:45:37;13.60;99.90
15127;DHT22;7664;52.008;4.748;2022-10-18T03:48:05;13.50;99.90
15127;DHT22;7664;52.008;4.748;2022-10-18T03:50:33;13.50;99.90
15127;DHT22;7664;52.008;4.748;2022-10-18T03:53:01;13.50;99.90
15127;DHT22;7664;52.008;4.748;2022-10-18T03:55:29;13.40;99.90
15127;DHT22;7664;52.008;4.748;2022-10-18T03:57:58;13.40;99.90
15127;DHT22;7664;52.008;4.748;2022-10-18T04:00:26;13.40;99.90
15127;DHT22;7664;52.008;4.748;2022-10-18T04:02:54;13.40;99.90
15127;DHT22;7664;52.008;4.748;2022-10-18T04:05:22;13.30;99.90
15127;DHT22;7664;52.008;4.748;2022-10-18T04:07:52;13.30;99.90
15127;DHT22;7664;52.008;4.748;2022-10-18T04:10:20;13.30;99.90
15127;DHT22;7664;52.008;4.748;2022-10-18T04:12:48;13.30;99.90
15127;DHT22;7664;52.008;4.748;2022-10-18T04:15:18;13.30;99.90
15127;DHT22;7664;52.008;4.748;2022-10-18T04:17:46;13.30;99.90
15127;DHT22;7664;52.008;4.748;2022-10-18T04:20:14;13.30;99.90
15127;DHT22;7664;52.008;4.748;2022-10-18T04:22:42;13.30;99.90
15127;DHT22;7664;52.008;4.748;2022-10-18T04:25:10;13.30;99.90
15127;DHT22;7664;52.008;4.748;2022-10-18T04:27:38;13.20;99.90
15127;DHT22;7664;52.008;4.748;2022-10-18T04:30:07;13.20;99.90
15127;DHT22;7664;52.008;4.748;2022-10-18T04:32:36;13.20;99.90
15127;DHT22;7664;52.008;4.748;2022-10-18T04:35:05;13.20;99.90
15127;DHT22;7664;52.008;4.748;2022-10-18T04:37:33;13.20;99.90
15127;DHT22;7664;52.008;4.748;2022-10-18T04:40:01;13.50;99.90
15127;DHT22;7664;52.008;4.748;2022-10-18T04:42:29;13.60;99.90
15127;DHT22;7664;52.008;4.748;2022-10-18T04:44:57;13.40;99.90
15127;DHT22;7664;52.008;4.748;2022-10-18T04:47:25;13.40;99.90
15127;DHT22;7664;52.008;4.748;2022-10-18T04:49:54;13.30;99.90
15127;DHT22;7664;52.008;4.748;2022-10-18T04:52:22;13.20;99.90
15127;DHT22;7664;52.008;4.748;2022-10-18T04:54:50;13.20;99.90
15127;DHT22;7664;52.008;4.748;2022-10-18T04:57:18;13.20;99.90
15127;DHT22;7664;52.008;4.748;2022-10-18T04:59:46;13.20;99.90
15127;DHT22;7664;52.008;4.748;2022-10-18T05:02:13;13.10;99.90
15127;DHT22;7664;52.008;4.748;2022-10-18T05:04:41;13.10;99.90
15127;DHT22;7664;52.008;4.748;2022-10-18T05:07:10;13.00;99.90
15127;DHT22;7664;52.008;4.748;2022-10-18T05:09:38;13.00;99.90
15127;DHT22;7664;52.008;4.748;2022-10-18T05:12:07;13.00;99.90
15127;DHT22;7664;52.008;4.748;2022-10-18T05:14:35;13.00;99.90
15127;DHT22;7664;52.008;4.748;2022-10-18T05:17:02;12.80;99.90
15127;DHT22;7664;52.008;4.748;2022-10-18T05:19:30;12.90;99.90
15127;DHT22;7664;52.008;4.748;2022-10-18T05:21:58;12.90;99.90
15127;DHT22;7664;52.008;4.748;2022-10-18T05:24:27;12.80;99.90
15127;DHT22;7664;52.008;4.748;2022-10-18T05:26:55;13.10;99.90
15127;DHT22;7664;52.008;4.748;2022-10-18T05:29:23;13.00;99.90
15127;DHT22;7664;52.008;4.748;2022-10-18T05:31:56;12.90;99.90
15127;DHT22;7664;52.008;4.748;2022-10-18T05:34:24;12.90;99.90
15127;DHT22;7664;52.008;4.748;2022-10-18T05:36:52;12.80;99.90
15127;DHT22;7664;52.008;4.748;2022-10-18T05:39:20;12.80;99.90
15127;DHT22;7664;52.008;4.748;2022-10-18T05:41:49;12.80;99.90
15127;DHT22;7664;52.008;4.748;2022-10-18T05:44:17;12.80;99.90
15127;DHT22;7664;52.008;4.748;2022-10-18T05:46:45;12.70;99.90
15127;DHT22;7664;52.008;4.748;2022-10-18T05:49:13;12.70;99.90
15127;DHT22;7664;52.008;4.748;2022-10-18T05:51:41;12.70;99.90
15127;DHT22;7664;52.008;4.748;2022-10-18T05:54:10;12.70;99.90
15127;DHT22;7664;52.008;4.748;2022-10-18T05:56:38;12.80;99.90
15127;DHT22;7664;52.008;4.748;2022-10-18T05:59:07;12.70;99.90
15127;DHT22;7664;52.008;4.748;2022-10-18T06:01:38;12.70;99.90
15127;DHT22;7664;52.008;4.748;2022-10-18T06:04:07;12.80;99.90
15127;DHT22;7664;52.008;4.748;2022-10-18T06:06:36;12.70;99.90
15127;DHT22;7664;52.008;4.748;2022-10-18T06:09:05;12.70;99.90
15127;DHT22;7664;52.008;4.748;2022-10-18T06:11:34;12.70;99.90
15127;DHT22;7664;52.008;4.748;2022-10-18T06:14:02;12.70;99.90
15127;DHT22;7664;52.008;4.748;2022-10-18T06:16:32;12.70;99.90
15127;DHT22;7664;52.008;4.748;2022-10-18T06:19:00;12.60;99.90
15127;DHT22;7664;52.008;4.748;2022-10-18T06:21:27;12.60;99.90
15127;DHT22;7664;52.008;4.748;2022-10-18T06:23:56;12.60;99.90
15127;DHT22;7664;52.008;4.748;2022-10-18T06:26:25;12.60;99.90
15127;DHT22;7664;52.008;4.748;2022-10-18T06:28:53;12.60;99.90
15127;DHT22;7664;52.008;4.748;2022-10-18T06:31:21;12.50;99.90
15127;DHT22;7664;52.008;4.748;2022-10-18T06:33:56;12.50;99.90
15127;DHT22;7664;52.008;4.748;2022-10-18T06:36:24;12.50;99.90
15127;DHT22;7664;52.008;4.748;2022-10-18T06:38:52;12.50;99.90
15127;DHT22;7664;52.008;4.748;2022-10-18T06:41:22;12.50;99.90
15127;DHT22;7664;52.008;4.748;2022-10-18T06:43:50;12.50;99.90
15127;DHT22;7664;52.008;4.748;2022-10-18T06:46:19;12.50;99.90
15127;DHT22;7664;52.008;4.748;2022-10-18T06:48:47;12.40;99.90
15127;DHT22;7664;52.008;4.748;2022-10-18T06:51:16;12.50;99.90
15127;DHT22;7664;52.008;4.748;2022-10-18T06:53:45;12.40;99.90
15127;DHT22;7664;52.008;4.748;2022-10-18T06:56:33;12.40;99.90
15127;DHT22;7664;52.008;4.748;2022-10-18T06:59:01;12.40;99.90
15127;DHT22;7664;52.008;4.748;2022-10-18T07:01:29;12.40;99.90
15127;DHT22;7664;52.008;4.748;2022-10-18T07:03:57;12.50;99.90
15127;DHT22;7664;52.008;4.748;2022-10-18T07:06:26;12.50;99.90
15127;DHT22;7664;52.008;4.748;2022-10-18T07:08:54;12.50;99.90
15127;DHT22;7664;52.008;4.748;2022-10-18T07:11:25;12.50;99.90
15127;DHT22;7664;52.008;4.748;2022-10-18T07:13:57;12.50;99.90
15127;DHT22;7664;52.008;4.748;2022-10-18T07:16:26;12.50;99.90
15127;DHT22;7664;52.008;4.748;2022-10-18T07:18:54;12.60;99.90
15127;DHT22;7664;52.008;4.748;2022-10-18T07:21:23;12.60;99.90
15127;DHT22;7664;52.008;4.748;2022-10-18T07:23:52;12.60;99.90
15127;DHT22;7664;52.008;4.748;2022-10-18T07:26:22;12.60;99.90
15127;DHT22;7664;52.008;4.748;2022-10-18T07:28:53;12.60;99.90
15127;DHT22;7664;52.008;4.748;2022-10-18T07:31:21;12.70;99.90
15127;DHT22;7664;52.008;4.748;2022-10-18T07:33:50;12.80;99.90
15127;DHT22;7664;52.008;4.748;2022-10-18T07:36:18;12.90;99.90
15127;DHT22;7664;52.008;4.748;2022-10-18T07:38:47;12.90;99.90
15127;DHT22;7664;52.008;4.748;2022-10-18T07:41:18;13.10;99.90
15127;DHT22;7664;52.008;4.748;2022-10-18T07:43:48;13.10;99.90
15127;DHT22;7664;52.008;4.748;2022-10-18T07:46:17;13.10;99.90
15127;DHT22;7664;52.008;4.748;2022-10-18T07:48:46;13.10;99.90
15127;DHT22;7664;52.008;4.748;2022-10-18T07:51:14;13.10;99.90
15127;DHT22;7664;52.008;4.748;2022-10-18T07:53:42;13.10;99.90
15127;DHT22;7664;52.008;4.748;2022-10-18T07:56:11;13.10;99.90
15127;DHT22;7664;52.008;4.748;2022-10-18T07:58:44;13.30;99.90
15127;DHT22;7664;52.008;4.748;2022-10-18T08:01:13;13.30;99.90
15127;DHT22;7664;52.008;4.748;2022-10-18T08:03:41;13.40;99.90
15127;DHT22;7664;52.008;4.748;2022-10-18T08:06:11;13.40;99.90
15127;DHT22;7664;52.008;4.748;2022-10-18T08:08:40;13.50;99.90
15127;DHT22;7664;52.008;4.748;2022-10-18T08:11:10;13.50;99.90
15127;DHT22;7664;52.008;4.748;2022-10-18T08:13:38;13.60;99.90
15127;DHT22;7664;52.008;4.748;2022-10-18T08:16:09;13.60;99.90
15127;DHT22;7664;52.008;4.748;2022-10-18T08:18:37;13.60;99.90
15127;DHT22;7664;52.008;4.748;2022-10-18T08:21:08;13.60;99.90
15127;DHT22;7664;52.008;4.748;2022-10-18T08:23:37;13.70;99.90
15127;DHT22;7664;52.008;4.748;2022-10-18T08:26:06;13.80;99.90
15127;DHT22;7664;52.008;4.748;2022-10-18T08:28:34;13.80;99.90
15127;DHT22;7664;52.008;4.748;2022-10-18T08:31:03;13.80;99.90
15127;DHT22;7664;52.008;4.748;2022-10-18T08:33:33;13.80;99.90
15127;DHT22;7664;52.008;4.748;2022-10-18T08:36:03;13.90;99.90
15127;DHT22;7664;52.008;4.748;2022-10-18T08:38:33;13.80;99.90
15127;DHT22;7664;52.008;4.748;2022-10-18T08:41:21;13.90;99.90
15127;DHT22;7664;52.008;4.748;2022-10-18T08:43:57;13.80;99.90
15127;DHT22;7664;52.008;4.748;2022-10-18T08:46:34;13.90;99.90
15127;DHT22;7664;52.008;4.748;2022-10-18T08:49:05;14.00;99.90
15127;DHT22;7664;52.008;4.748;2022-10-18T08:51:37;14.10;99.90
15127;DHT22;7664;52.008;4.748;2022-10-18T08:54:10;14.20;99.90
15127;DHT22;7664;52.008;4.748;2022-10-18T08:56:42;14.20;99.90
15127;DHT22;7664;52.008;4.748;2022-10-18T08:59:12;14.20;99.90
15127;DHT22;7664;52.008;4.748;2022-10-18T09:01:58;14.30;99.90
15127;DHT22;7664;52.008;4.748;2022-10-18T09:04:45;14.30;99.90
15127;DHT22;7664;52.008;4.748;2022-10-18T09:07:39;14.50;99.90
15127;DHT22;7664;52.008;4.748;2022-10-18T09:10:19;14.50;99.90
15127;DHT22;7664;52.008;4.748;2022-10-18T09:13:09;14.60;99.90
15127;DHT22;7664;52.008;4.748;2022-10-18T09:15:44;14.60;99.90
15127;DHT22;7664;52.008;4.748;2022-10-18T09:18:36;14.60;99.90
15127;DHT22;7664;52.008;4.748;2022-10-18T09:21:17;14.70;99.90
15127;DHT22;7664;52.008;4.748;2022-10-18T09:23:47;14.60;99.90
15127;DHT22;7664;52.008;4.748;2022-10-18T09:26:17;14.70;99.90
15127;DHT22;7664;52.008;4.748;2022-10-18T09:28:58;14.70;99.90
15127;DHT22;7664;52.008;4.748;2022-10-18T09:31:39;14.70;99.90
15127;DHT22;7664;52.008;4.748;2022-10-18T09:34:13;14.70;99.90
15127;DHT22;7664;52.008;4.748;2022-10-18T09:36:50;14.70;99.90
15127;DHT22;7664;52.008;4.748;2022-10-18T09:39:21;14.70;99.90
15127;DHT22;7664;52.008;4.748;2022-10-18T09:41:52;14.80;99.90
15127;DHT22;7664;52.008;4.748;2022-10-18T09:44:23;14.90;99.90
15127;DHT22;7664;52.008;4.748;2022-10-18T09:46:56;15.10;99.90
15127;DHT22;7664;52.008;4.748;2022-10-18T09:49:29;15.10;99.90
15127;DHT22;7664;52.008;4.748;2022-10-18T09:52:03;15.30;99.90
15127;DHT22;7664;52.008;4.748;2022-10-18T09:54:34;15.20;99.90
15127;DHT22;7664;52.008;4.748;2022-10-18T09:57:10;15.20;99.90
15127;DHT22;7664;52.008;4.748;2022-10-18T09:59:41;15.30;99.90
15127;DHT22;7664;52.008;4.748;2022-10-18T10:02:12;15.30;99.90
15127;DHT22;7664;52.008;4.748;2022-10-18T10:04:41;15.30;99.90
15127;DHT22;7664;52.008;4.748;2022-10-18T10:07:13;15.40;99.90
15127;DHT22;7664;52.008;4.748;2022-10-18T10:09:44;15.50;99.90
15127;DHT22;7664;52.008;4.748;2022-10-18T10:12:28;15.60;99.90
15127;DHT22;7664;52.008;4.748;2022-10-18T10:15:07;15.60;99.90
15127;DHT22;7664;52.008;4.748;2022-10-18T10:17:35;15.70;99.90
15127;DHT22;7664;52.008;4.748;2022-10-18T10:20:14;15.60;99.90
15127;DHT22;7664;52.008;4.748;2022-10-18T10:22:46;15.70;99.90
15127;DHT22;7664;52.008;4.748;2022-10-18T10:25:20;15.80;99.90
15127;DHT22;7664;52.008;4.748;2022-10-18T10:27:49;15.80;99.90
15127;DHT22;7664;52.008;4.748;2022-10-18T10:30:23;15.90;99.90
15127;DHT22;7664;52.008;4.748;2022-10-18T10:32:52;15.80;99.90
15127;DHT22;7664;52.008;4.748;2022-10-18T10:35:23;16.00;99.90
15127;DHT22;7664;52.008;4.748;2022-10-18T10:38:21;15.90;99.90
15127;DHT22;7664;52.008;4.748;2022-10-18T10:40:50;15.90;99.90
15127;DHT22;7664;52.008;4.748;2022-10-18T10:43:21;15.80;99.90
15127;DHT22;7664;52.008;4.748;2022-10-18T10:46:07;15.90;99.90
15127;DHT22;7664;52.008;4.748;2022-10-18T10:48:46;15.90;99.90
15127;DHT22;7664;52.008;4.748;2022-10-18T10:51:16;15.90;99.90
15127;DHT22;7664;52.008;4.748;2022-10-18T10:53:49;15.90;99.90
15127;DHT22;7664;52.008;4.748;2022-10-18T10:56:26;16.00;99.90
15127;DHT22;7664;52.008;4.748;2022-10-18T10:58:57;16.10;99.90
15127;DHT22;7664;52.008;4.748;2022-10-18T11:01:30;16.20;99.90
15127;DHT22;7664;52.008;4.748;2022-10-18T11:04:00;16.10;99.90
15127;DHT22;7664;52.008;4.748;2022-10-18T11:06:38;16.10;99.90
15127;DHT22;7664;52.008;4.748;2022-10-18T11:12:03;16.00;99.90
15127;DHT22;7664;52.008;4.748;2022-10-18T11:14:36;16.00;99.90
15127;DHT22;7664;52.008;4.748;2022-10-18T11:17:13;16.10;99.90
15127;DHT22;7664;52.008;4.748;2022-10-18T11:19:54;16.10;99.90
15127;DHT22;7664;52.008;4.748;2022-10-18T11:22:29;16.20;99.90
15127;DHT22;7664;52.008;4.748;2022-10-18T11:25:02;16.20;99.90
15127;DHT22;7664;52.008;4.748;2022-10-18T11:27:38;16.30;99.90
15127;DHT22;7664;52.008;4.748;2022-10-18T11:30:25;16.20;99.90
15127;DHT22;7664;52.008;4.748;2022-10-18T11:32:59;16.20;99.90
15127;DHT22;7664;52.008;4.748;2022-10-18T11:35:38;16.30;99.90
15127;DHT22;7664;52.008;4.748;2022-10-18T11:38:22;16.30;99.90
15127;DHT22;7664;52.008;4.748;2022-10-18T11:43:50;16.10;99.90
15127;DHT22;7664;52.008;4.748;2022-10-18T11:46:44;16.10;99.90
15127;DHT22;7664;52.008;4.748;2022-10-18T11:49:23;16.00;99.90
15127;DHT22;7664;52.008;4.748;2022-10-18T11:52:01;16.20;99.90
15127;DHT22;7664;52.008;4.748;2022-10-18T11:54:56;16.30;99.90
15127;DHT22;7664;52.008;4.748;2022-10-18T11:57:45;16.40;99.90
15127;DHT22;7664;52.008;4.748;2022-10-18T12:00:34;16.40;99.90
15127;DHT22;7664;52.008;4.748;2022-10-18T12:03:19;16.50;99.90
15127;DHT22;7664;52.008;4.748;2022-10-18T12:05:50;16.50;99.90
15127;DHT22;7664;52.008;4.748;2022-10-18T12:08:24;16.60;99.90
15127;DHT22;7664;52.008;4.748;2022-10-18T12:10:54;16.60;99.90
15127;DHT22;7664;52.008;4.748;2022-10-18T12:13:38;16.60;99.90
15127;DHT22;7664;52.008;4.748;2022-10-18T12:16:08;16.60;99.90
15127;DHT22;7664;52.008;4.748;2022-10-18T12:18:48;16.70;99.90
15127;DHT22;7664;52.008;4.748;2022-10-18T12:21:21;16.80;99.90
15127;DHT22;7664;52.008;4.748;2022-10-18T12:23:54;16.90;99.90
15127;DHT22;7664;52.008;4.748;2022-10-18T12:26:24;16.90;99.90
15127;DHT22;7664;52.008;4.748;2022-10-18T12:29:06;16.80;99.90
15127;DHT22;7664;52.008;4.748;2022-10-18T12:31:39;16.90;99.90
15127;DHT22;7664;52.008;4.748;2022-10-18T12:34:23;16.90;99.90
15127;DHT22;7664;52.008;4.748;2022-10-18T12:37:22;16.90;99.90
15127;DHT22;7664;52.008;4.748;2022-10-18T12:39:56;16.90;99.90
15127;DHT22;7664;52.008;4.748;2022-10-18T12:42:47;16.90;99.90
15127;DHT22;7664;52.008;4.748;2022-10-18T12:45:23;16.90;99.90
15127;DHT22;7664;52.008;4.748;2022-10-18T12:47:52;16.90;99.90
15127;DHT22;7664;52.008;4.748;2022-10-18T12:50:28;17.00;99.90
15127;DHT22;7664;52.008;4.748;2022-10-18T12:53:06;17.00;99.90
15127;DHT22;7664;52.008;4.748;2022-10-18T12:55:40;17.00;99.90
15127;DHT22;7664;52.008;4.748;2022-10-18T12:58:35;17.00;99.90
15127;DHT22;7664;52.008;4.748;2022-10-18T13:01:05;17.00;99.90
15127;DHT22;7664;52.008;4.748;2022-10-18T13:03:57;17.00;99.90
15127;DHT22;7664;52.008;4.748;2022-10-18T13:09:35;16.90;99.90
15127;DHT22;7664;52.008;4.748;2022-10-18T13:15:05;16.90;99.90
15127;DHT22;7664;52.008;4.748;2022-10-18T13:17:58;16.70;99.90
15127;DHT22;7664;52.008;4.748;2022-10-18T13:20:31;16.70;99.90
15127;DHT22;7664;52.008;4.748;2022-10-18T13:23:23;16.70;99.90
15127;DHT22;7664;52.008;4.748;2022-10-18T13:26:03;16.70;99.90
15127;DHT22;7664;52.008;4.748;2022-10-18T13:28:44;16.80;99.90
15127;DHT22;7664;52.008;4.748;2022-10-18T13:31:19;16.80;99.90
15127;DHT22;7664;52.008;4.748;2022-10-18T13:33:50;16.90;99.90
15127;DHT22;7664;52.008;4.748;2022-10-18T13:36:21;16.80;99.90
15127;DHT22;7664;52.008;4.748;2022-10-18T13:39:02;16.80;99.90
15127;DHT22;7664;52.008;4.748;2022-10-18T13:42:16;16.70;99.90
15127;DHT22;7664;52.008;4.748;2022-10-18T13:44:26;16.70;99.90
15127;DHT22;7664;52.008;4.748;2022-10-18T13:47:11;16.70;99.90
15127;DHT22;7664;52.008;4.748;2022-10-18T13:52:42;16.80;99.90
15127;DHT22;7664;52.008;4.748;2022-10-18T13:55:34;16.80;99.90
15127;DHT22;7664;52.008;4.748;2022-10-18T13:58:13;16.70;99.90
15127;DHT22;7664;52.008;4.748;2022-10-18T14:00:53;16.70;99.90
15127;DHT22;7664;52.008;4.748;2022-10-18T14:03:35;16.80;99.90
15127;DHT22;7664;52.008;4.748;2022-10-18T14:06:26;16.80;99.90
15127;DHT22;7664;52.008;4.748;2022-10-18T14:08:59;16.90;99.90
15127;DHT22;7664;52.008;4.748;2022-10-18T14:11:47;17.00;99.90
15127;DHT22;7664;52.008;4.748;2022-10-18T14:14:21;16.90;99.90
15127;DHT22;7664;52.008;4.748;2022-10-18T14:16:56;16.90;99.90
15127;DHT22;7664;52.008;4.748;2022-10-18T14:19:29;16.80;99.90
15127;DHT22;7664;52.008;4.748;2022-10-18T14:22:09;16.80;99.90
15127;DHT22;7664;52.008;4.748;2022-10-18T14:24:39;16.70;99.90
15127;DHT22;7664;52.008;4.748;2022-10-18T14:27:17;16.70;99.90
15127;DHT22;7664;52.008;4.748;2022-10-18T14:29:45;16.50;99.90
15127;DHT22;7664;52.008;4.748;2022-10-18T14:32:25;16.60;99.90
15127;DHT22;7664;52.008;4.748;2022-10-18T14:34:54;16.60;99.90
15127;DHT22;7664;52.008;4.748;2022-10-18T14:37:46;16.70;99.90
15127;DHT22;7664;52.008;4.748;2022-10-18T14:40:32;16.70;99.90
15127;DHT22;7664;52.008;4.748;2022-10-18T14:43:02;16.70;99.90
15127;DHT22;7664;52.008;4.748;2022-10-18T14:45:30;16.70;99.90
15127;DHT22;7664;52.008;4.748;2022-10-18T14:48:06;16.60;99.90
15127;DHT22;7664;52.008;4.748;2022-10-18T14:50:34;16.60;99.90
15127;DHT22;7664;52.008;4.748;2022-10-18T14:53:07;16.50;99.90
15127;DHT22;7664;52.008;4.748;2022-10-18T14:55:36;16.50;99.90
15127;DHT22;7664;52.008;4.748;2022-10-18T14:58:10;16.60;99.90
15127;DHT22;7664;52.008;4.748;2022-10-18T15:00:41;16.60;99.90
15127;DHT22;7664;52.008;4.748;2022-10-18T15:03:16;16.60;99.90
15127;DHT22;7664;52.008;4.748;2022-10-18T15:05:52;16.50;99.90
15127;DHT22;7664;52.008;4.748;2022-10-18T15:08:22;16.40;99.90
15127;DHT22;7664;52.008;4.748;2022-10-18T15:10:51;16.60;99.90
15127;DHT22;7664;52.008;4.748;2022-10-18T15:13:20;16.50;99.90
15127;DHT22;7664;52.008;4.748;2022-10-18T15:15:48;16.50;99.90
15127;DHT22;7664;52.008;4.748;2022-10-18T15:18:19;16.40;99.90
15127;DHT22;7664;52.008;4.748;2022-10-18T15:21:06;16.30;99.90
15127;DHT22;7664;52.008;4.748;2022-10-18T15:23:36;16.30;99.90
15127;DHT22;7664;52.008;4.748;2022-10-18T15:26:05;16.20;99.90
15127;DHT22;7664;52.008;4.748;2022-10-18T15:28:36;16.20;99.90
15127;DHT22;7664;52.008;4.748;2022-10-18T15:31:05;16.20;99.90
15127;DHT22;7664;52.008;4.748;2022-10-18T15:33:43;16.10;99.90
15127;DHT22;7664;52.008;4.748;2022-10-18T15:36:23;16.10;99.90
15127;DHT22;7664;52.008;4.748;2022-10-18T15:38:52;16.20;99.90
15127;DHT22;7664;52.008;4.748;2022-10-18T15:41:41;16.10;99.90
15127;DHT22;7664;52.008;4.748;2022-10-18T15:44:25;16.10;99.90
15127;DHT22;7664;52.008;4.748;2022-10-18T15:46:55;16.10;99.90
15127;DHT22;7664;52.008;4.748;2022-10-18T15:49:54;16.00;99.90
15127;DHT22;7664;52.008;4.748;2022-10-18T15:52:33;15.90;99.90
15127;DHT22;7664;52.008;4.748;2022-10-18T15:58:16;15.70;99.90
15127;DHT22;7664;52.008;4.748;2022-10-18T16:00:45;15.70;99.90
15127;DHT22;7664;52.008;4.748;2022-10-18T16:03:14;15.60;99.90
15127;DHT22;7664;52.008;4.748;2022-10-18T16:05:42;15.60;99.90
15127;DHT22;7664;52.008;4.748;2022-10-18T16:08:19;15.60;99.90
15127;DHT22;7664;52.008;4.748;2022-10-18T16:10:47;15.60;99.90
15127;DHT22;7664;52.008;4.748;2022-10-18T16:13:16;15.50;99.90
15127;DHT22;7664;52.008;4.748;2022-10-18T16:15:44;15.50;99.90
15127;DHT22;7664;52.008;4.748;2022-10-18T16:18:15;15.50;99.90
15127;DHT22;7664;52.008;4.748;2022-10-18T16:20:43;15.40;99.90
15127;DHT22;7664;52.008;4.748;2022-10-18T16:23:19;15.40;99.90
15127;DHT22;7664;52.008;4.748;2022-10-18T16:25:47;15.40;99.90
15127;DHT22;7664;52.008;4.748;2022-10-18T16:28:20;15.30;99.90
15127;DHT22;7664;52.008;4.748;2022-10-18T16:30:53;15.30;99.90
15127;DHT22;7664;52.008;4.748;2022-10-18T16:33:21;15.30;99.90
15127;DHT22;7664;52.008;4.748;2022-10-18T16:35:50;15.20;99.90
15127;DHT22;7664;52.008;4.748;2022-10-18T16:38:23;15.10;99.90
15127;DHT22;7664;52.008;4.748;2022-10-18T16:40:53;15.00;99.90
15127;DHT22;7664;52.008;4.748;2022-10-18T16:43:23;14.90;99.90